Time;durP1;ratioP1;P1;durP2;ratioP2;P2;SDS_P1;SDS_P2;PMS_P1;PMS_P2;Temp;Humidity;BMP_temperature;BMP_pressure;BME280_temperature;BME280_humidity;BME280_pressure;Samples;Min_cycle;Max_cycle;Signal;HPM_P1;HPM_P2
2022/06/21 21:26:34;;;;;;;3.60;1.50;;;;;;99954.87;;;;104895;1302;556452;-39
2022/06/21 21:29:01;;;;;;;4.00;1.50;;;;;;99953.47;;;;106705;1292;22511;-40
2022/06/21 21:31:29;;;;;;;4.90;1.30;;;;;;99947.85;;;;106528;1301;23539;-39
2022/06/21 21:33:56;;;;;;;4.40;1.40;;;;;;99946.46;;;;106638;1309;22497;-39
2022/06/21 21:36:24;;;;;;;4.10;1.80;;;;;;99940.86;;;;106644;1300;24289;-39
2022/06/21 21:38:52;;;;;;;3.60;1.40;;;;;;99945.34;;;;106670;1300;22491;-39
2022/06/21 21:41:19;;;;;;;4.20;1.90;;;;;;99951.86;;;;106569;1298;262658;-40
2022/06/21 21:43:47;;;;;;;3.60;1.60;;;;;;99960.64;;;;106757;1297;24141;-39
2022/06/21 21:46:14;;;;;;;5.00;2.00;;;;;;99960.54;;;;106753;1297;24418;-39
2022/06/21 21:48:42;;;;;;;4.90;1.80;;;;;;99961.33;;;;106707;1298;22941;-40
2022/06/21 21:51:10;;;;;;;4.00;1.90;;;;;;99962.09;;;;106735;1301;23712;-39
2022/06/21 21:53:37;;;;;;;4.40;2.00;;;;;;99959.92;;;;106750;1298;22702;-39
2022/06/21 21:56:04;;;;;;;3.70;1.80;;;;;;99951.61;;;;106734;1298;23814;-39
2022/06/21 21:58:32;;;;;;;4.10;1.40;;;;;;99946.84;;;;106746;1298;22505;-40
2022/06/21 22:00:59;;;;;;;4.00;1.70;;;;;;99947.48;;;;106731;1297;22629;-38
2022/06/21 22:03:27;;;;;;;4.80;1.60;;;;;;99949.24;;;;107663;1290;22957;-39
2022/06/21 22:05:54;;;;;;;5.70;1.60;;;;;;99951.02;;;;107691;1290;24197;-39
2022/06/21 22:08:22;;;;;;;3.60;1.50;;;;;;99953.70;;;;107530;1291;22493;-37
2022/06/21 22:10:50;;;;;;;4.30;1.40;;;;;;99963.05;;;;107674;1290;25264;-39
2022/06/21 22:13:17;;;;;;;4.00;1.50;;;;;;99957.16;;;;107658;1295;22474;-39
2022/06/21 22:15:45;;;;;;;3.80;1.70;;;;;;99959.34;;;;107659;1290;22506;-38
2022/06/21 22:18:12;;;;;;;5.40;2.50;;;;;;99965.52;;;;107676;1290;24259;-39
2022/06/21 22:20:41;;;;;;;5.90;2.10;;;;;;99968.67;;;;107668;1290;24215;-39
2022/06/21 22:23:08;;;;;;;6.00;2.10;;;;;;99966.22;;;;107655;1295;22491;-39
2022/06/21 22:25:36;;;;;;;7.90;2.60;;;;;;99963.34;;;;107651;1301;22499;-39
2022/06/21 22:28:04;;;;;;;5.70;2.10;;;;;;99962.13;;;;107645;1290;25887;-39
2022/06/21 22:30:31;;;;;;;6.60;2.40;;;;;;99964.33;;;;107693;1290;25368;-39
2022/06/21 22:32:59;;;;;;;5.50;2.30;;;;;;99963.75;;;;107677;1290;22554;-39
2022/06/21 22:35:26;;;;;;;5.10;2.20;;;;;;99963.59;;;;107526;1291;22508;-39
2022/06/21 22:37:54;;;;;;;6.00;2.20;;;;;;99966.52;;;;107654;1290;24127;-38
2022/06/21 22:40:24;;;;;;;4.90;2.10;;;;;;99969.64;;;;107662;1290;24370;-39
2022/06/21 22:42:52;;;;;;;4.10;1.90;;;;;;99973.64;;;;107519;1291;22523;-39
2022/06/21 22:45:19;;;;;;;6.00;2.40;;;;;;99979.67;;;;107647;1302;22497;-39
2022/06/21 22:47:47;;;;;;;4.10;1.90;;;;;;99987.18;;;;107651;1301;22514;-38
2022/06/21 22:50:14;;;;;;;5.60;2.00;;;;;;99986.22;;;;107662;1290;22826;-39
2022/06/21 22:52:42;;;;;;;4.10;2.10;;;;;;99984.18;;;;107662;1301;22511;-38
2022/06/21 22:55:10;;;;;;;4.50;2.10;;;;;;99984.20;;;;107672;1290;22563;-39
2022/06/21 22:57:38;;;;;;;4.30;2.10;;;;;;99980.85;;;;107690;1290;25195;-39
2022/06/21 23:00:06;;;;;;;4.60;2.00;;;;;;99981.30;;;;107676;1290;25912;-39
2022/06/21 23:02:34;;;;;;;3.60;2.10;;;;;;99977.82;;;;107665;1290;24800;-38
2022/06/21 23:05:01;;;;;;;5.20;2.10;;;;;;99977.23;;;;107652;1290;25225;-38
2022/06/21 23:07:29;;;;;;;4.10;2.10;;;;;;99975.23;;;;107660;1290;22602;-39
2022/06/21 23:09:56;;;;;;;5.00;2.10;;;;;;99978.37;;;;107665;1290;22537;-39
2022/06/21 23:12:24;;;;;;;3.60;1.80;;;;;;99975.22;;;;107656;1290;22500;-39
2022/06/21 23:14:51;;;;;;;4.50;2.20;;;;;;99978.38;;;;107669;1290;24348;-39
2022/06/21 23:17:19;;;;;;;6.30;1.90;;;;;;99983.15;;;;107665;1290;24117;-39
2022/06/21 23:19:46;;;;;;;3.70;1.70;;;;;;99987.52;;;;107658;1290;24215;-39
2022/06/21 23:22:13;;;;;;;4.20;2.00;;;;;;99991.58;;;;107685;1290;22582;-39
2022/06/21 23:24:41;;;;;;;4.00;1.80;;;;;;99995.26;;;;107659;1290;22500;-39
2022/06/21 23:27:09;;;;;;;3.10;1.60;;;;;;99997.21;;;;107671;1294;24197;-39
2022/06/21 23:29:36;;;;;;;4.60;1.70;;;;;;99994.60;;;;107638;1290;24367;-40
2022/06/21 23:32:04;;;;;;;4.50;1.70;;;;;;99994.96;;;;107665;1290;22516;-39
2022/06/21 23:34:31;;;;;;;3.60;1.90;;;;;;99998.10;;;;107686;1293;23889;-39
2022/06/21 23:36:59;;;;;;;4.00;1.90;;;;;;99996.39;;;;107682;1290;24135;-39
2022/06/21 23:39:27;;;;;;;5.00;1.90;;;;;;99995.61;;;;107687;1290;24371;-39
2022/06/21 23:41:54;;;;;;;4.30;1.70;;;;;;99996.95;;;;107696;1290;22995;-39
2022/06/21 23:44:22;;;;;;;3.40;1.90;;;;;;99997.55;;;;107664;1290;25234;-39
2022/06/21 23:46:50;;;;;;;4.10;1.80;;;;;;100000.89;;;;107654;1302;22529;-39
2022/06/21 23:49:18;;;;;;;4.20;1.80;;;;;;100002.79;;;;107656;1290;24137;-39
2022/06/21 23:51:45;;;;;;;4.20;1.80;;;;;;100001.38;;;;107659;1294;22505;-39
2022/06/21 23:54:13;;;;;;;3.80;1.80;;;;;;99996.67;;;;107654;1297;22497;-37
2022/06/21 23:56:41;;;;;;;3.30;1.60;;;;;;99994.05;;;;107679;1290;23799;-38
2022/06/21 23:59:08;;;;;;;3.30;1.80;;;;;;99987.83;;;;107647;1290;22906;-37
